Time;durP1;ratioP1;P1;durP2;ratioP2;P2;SDS_P1;SDS_P2;PMS_P1;PMS_P2;Temp;Humidity;BMP_temperature;BMP_pressure;BME280_temperature;BME280_humidity;BME280_pressure;Samples;Min_cycle;Max_cycle;Signal;HPM_P1;HPM_P2
2021/12/11 00:00:35;;;;;;;49.55;20.52;;;;;;;3.75;nan;99599.41;5015140;28;20092;-72
2021/12/11 00:03:37;;;;;;;50.78;21.88;;;;;;;3.79;nan;99624.84;5026019;28;20045;-72
2021/12/11 00:06:27;;;;;;;49.58;20.75;;;;;;;3.73;nan;99622.25;5032157;28;20041;-71
2021/12/11 00:09:22;;;;;;;49.17;21.55;;;;;;;3.75;nan;99625.47;5032728;28;20037;-71
2021/12/11 00:12:21;;;;;;;53.60;21.15;;;;;;;3.86;nan;99645.72;5012500;28;20484;-72
2021/12/11 00:15:07;;;;;;;;;;;;;;;3.89;nan;99642.69;5036274;28;20428;-72
2021/12/11 00:18:02;;;;;;;47.15;18.75;;;;;;;3.85;nan;99623.25;5031036;28;19924;-72
2021/12/11 00:20:58;;;;;;;43.17;19.30;;;;;;;3.86;nan;99629.28;5014415;28;20030;-72
2021/12/11 00:23:52;;;;;;;47.30;18.77;;;;;;;3.86;nan;99635.28;5042592;28;20041;-71
2021/12/11 00:26:41;;;;;;;42.47;18.63;;;;;;;3.84;nan;99643.28;5020974;28;20187;-72
2021/12/11 00:29:27;;;;;;;;;;;;;;;3.80;nan;99643.88;5023665;28;20063;-72
2021/12/11 00:32:23;;;;;;;37.80;15.93;;;;;;;3.76;nan;99642.66;5018732;28;20390;-72
2021/12/11 00:35:16;;;;;;;42.28;17.80;;;;;;;3.79;nan;99647.50;5033927;28;20037;-72
2021/12/11 00:38:09;;;;;;;37.08;16.13;;;;;;;3.58;nan;99619.81;5026250;28;20066;-72
2021/12/11 00:40:55;;;;;;;38.08;17.58;;;;;;;3.74;nan;99644.69;5031004;28;20038;-72
2021/12/11 00:43:42;;;;;;;40.53;17.67;;;;;;;3.55;nan;99617.63;5027075;28;20037;-72
2021/12/11 00:46:30;;;;;;;37.38;16.27;;;;;;;3.72;nan;99650.09;5024705;28;20137;-72
2021/12/11 00:49:19;;;;;;;36.78;16.23;;;;;;;3.71;nan;99642.47;5030008;28;20044;-72
2021/12/11 00:52:05;;;;;;;;;;;;;;;3.76;nan;99640.88;5031380;28;20055;-72
2021/12/11 00:54:51;;;;;;;33.08;14.65;;;;;;;3.66;nan;99640.44;5029951;28;20016;-73
2021/12/11 00:57:37;;;;;;;35.30;14.98;;;;;;;3.68;nan;99648.88;5013512;28;20038;-73
2021/12/11 01:00:24;;;;;;;28.92;12.88;;;;;;;3.65;nan;99664.09;5015748;28;20510;-72
2021/12/11 01:03:11;;;;;;;30.33;13.32;;;;;;;3.63;nan;99648.66;5027901;28;20040;-72
2021/12/11 01:06:01;;;;;;;30.23;12.70;;;;;;;3.65;nan;99644.06;5029900;28;20044;-72
2021/12/11 01:08:55;;;;;;;35.92;14.55;;;;;;;3.67;nan;99636.06;5030333;28;20127;-72
2021/12/11 01:11:49;;;;;;;35.55;13.88;;;;;;;3.68;nan;99632.47;5031187;28;20061;-72
2021/12/11 01:15:06;;;;;;;27.95;13.68;;;;;;;3.69;nan;99631.44;5029957;28;20044;-72
2021/12/11 01:18:22;;;;;;;28.15;12.38;;;;;;;3.62;nan;99608.03;5027845;28;20048;-73
2021/12/11 01:21:41;;;;;;;28.63;12.70;;;;;;;3.63;nan;99612.22;5027081;28;20120;-72
2021/12/11 01:24:30;;;;;;;37.28;14.98;;;;;;;3.57;nan;99613.81;5022931;28;20056;-72
2021/12/11 01:27:22;;;;;;;39.70;16.23;;;;;;;3.48;nan;99603.81;5017600;28;20069;-71
2021/12/11 01:30:13;;;;;;;38.90;15.93;;;;;;;3.52;nan;99611.03;5028489;28;20040;-71
2021/12/11 01:33:00;;;;;;;42.75;16.23;;;;;;;3.44;nan;99599.97;5021651;28;20036;-71
2021/12/11 01:35:47;;;;;;;46.25;17.90;;;;;;;3.41;nan;99595.97;5026826;28;20056;-70
2021/12/11 01:38:34;;;;;;;45.35;16.70;;;;;;;3.37;nan;99597.38;5025273;28;20551;-71
2021/12/11 01:41:20;;;;;;;47.75;16.90;;;;;;;3.33;nan;99601.38;5030494;28;20064;-70
2021/12/11 01:44:13;;;;;;;51.17;17.58;;;;;;;3.32;nan;99603.16;5024667;28;20038;-71
2021/12/11 01:47:10;;;;;;;54.13;18.52;;;;;;;3.34;nan;99602.97;5030524;28;20045;-71
2021/12/11 01:50:04;;;;;;;46.35;17.08;;;;;;;3.27;nan;99600.34;5032345;28;20041;-71
2021/12/11 01:53:00;;;;;;;41.67;16.10;;;;;;;3.29;nan;99615.78;5031285;28;20037;-71
2021/12/11 01:55:53;;;;;;;37.92;15.57;;;;;;;3.14;nan;99603.72;5026558;28;20044;-70
2021/12/11 01:58:45;;;;;;;42.55;15.23;;;;;;;3.18;nan;99612.75;5021168;28;20029;-70
2021/12/11 02:01:34;;;;;;;40.08;15.48;;;;;;;3.21;nan;99621.97;5025673;28;20470;-71
2021/12/11 02:04:23;;;;;;;42.03;15.45;;;;;;;3.03;nan;99613.88;5015585;28;20034;-71
2021/12/11 02:07:15;;;;;;;42.22;15.32;;;;;;;3.06;nan;99626.50;5029817;28;20108;-71
2021/12/11 02:10:01;;;;;;;35.15;13.27;;;;;;;2.93;nan;99607.25;5032302;28;20503;-73
2021/12/11 02:12:47;;;;;;;31.95;13.45;;;;;;;3.02;nan;99614.88;5036646;28;20047;-71
2021/12/11 02:15:38;;;;;;;34.83;12.23;;;;;;;2.87;nan;99584.59;5021483;28;20042;-71
2021/12/11 02:18:37;;;;;;;40.60;13.10;;;;;;;2.95;nan;99612.28;5018599;28;20034;-73
2021/12/11 02:21:32;;;;;;;34.85;12.90;;;;;;;2.88;nan;99596.63;5018525;28;20040;-71
2021/12/11 02:24:23;;;;;;;40.50;12.48;;;;;;;2.70;nan;99565.94;5013907;28;20062;-70
2021/12/11 02:27:17;;;;;;;30.52;11.75;;;;;;;2.67;nan;99581.94;5020396;28;20038;-71
2021/12/11 02:30:20;;;;;;;33.10;12.52;;;;;;;2.73;nan;99599.38;5013886;28;20107;-73
2021/12/11 02:33:18;;;;;;;34.50;11.80;;;;;;;2.69;nan;99589.56;5039090;28;20372;-71
2021/12/11 02:36:15;;;;;;;38.22;11.68;;;;;;;2.66;nan;99576.91;5025510;28;20046;-70
2021/12/11 02:39:06;;;;;;;56.13;12.23;;;;;;;2.61;nan;99579.31;5027597;28;20788;-72
2021/12/11 02:42:00;;;;;;;136.05;12.13;;;;;;;2.48;nan;99567.84;5030099;28;20136;-74
2021/12/11 02:44:55;;;;;;;88.00;11.65;;;;;;;2.38;nan;99571.81;5019705;28;20570;-73
2021/12/11 02:47:49;;;;;;;110.05;11.18;;;;;;;2.25;nan;99556.94;5018422;28;20037;-73
2021/12/11 02:50:43;;;;;;;61.17;10.35;;;;;;;2.20;nan;99567.09;5020102;28;20457;-74
2021/12/11 02:53:30;;;;;;;44.05;9.82;;;;;;;2.18;nan;99567.31;5045420;28;20034;-74
2021/12/11 02:56:36;;;;;;;73.28;11.55;;;;;;;1.99;nan;99549.78;5027962;28;20454;-74
2021/12/11 02:59:26;;;;;;;56.90;10.27;;;;;;;2.01;nan;99560.78;5034115;28;20044;-74
2021/12/11 03:02:24;;;;;;;86.07;10.25;;;;;;;2.01;nan;99553.00;5021899;28;20099;-74
2021/12/11 03:05:13;;;;;;;103.78;11.30;;;;;;;1.91;nan;99538.53;5023220;28;20415;-74
2021/12/11 03:08:01;;;;;;;54.58;11.02;;;;;;;1.88;nan;99528.53;5031592;28;20033;-70
2021/12/11 03:10:54;;;;;;;92.45;11.65;;;;;;;1.67;nan;99492.25;5013470;28;20095;-74
2021/12/11 03:13:44;;;;;;;81.07;12.05;;;;;;;1.91;nan;99528.16;5022458;28;20422;-73
2021/12/11 03:16:33;;;;;;;60.20;11.32;;;;;;;1.76;nan;99504.09;5033198;28;20045;-70
2021/12/11 03:19:23;;;;;;;58.97;11.32;;;;;;;1.91;nan;99532.56;5014232;28;20034;-71
2021/12/11 03:22:15;;;;;;;92.20;12.43;;;;;;;1.91;nan;99532.56;5050632;28;20057;-71
2021/12/11 03:25:06;;;;;;;66.85;11.50;;;;;;;1.88;nan;99523.34;5033513;28;20127;-71
2021/12/11 03:27:52;;;;;;;52.28;11.30;;;;;;;1.79;nan;99521.09;5034101;28;20491;-71
2021/12/11 03:30:56;;;;;;;47.25;12.05;;;;;;;1.54;nan;99489.59;5026733;28;20401;-71
2021/12/11 03:33:49;;;;;;;42.25;12.77;;;;;;;1.78;nan;99535.88;5019597;28;20124;-70
2021/12/11 03:36:36;;;;;;;46.95;11.00;;;;;;;1.87;nan;99552.91;5024555;28;20033;-70
2021/12/11 03:39:27;;;;;;;36.58;12.10;;;;;;;1.87;nan;99558.09;5017082;28;20605;-72
2021/12/11 03:42:27;;;;;;;63.50;12.32;;;;;;;1.62;nan;99516.19;5038505;28;20045;-72
2021/12/11 03:45:21;;;;;;;46.35;12.40;;;;;;;1.87;nan;99555.50;5014388;28;20508;-71
2021/12/11 03:48:15;;;;;;;43.20;12.02;;;;;;;1.88;nan;99567.47;5059740;28;20045;-71
2021/12/11 03:51:03;;;;;;;48.72;13.05;;;;;;;1.82;nan;99564.84;5017799;28;20053;-71
2021/12/11 03:53:50;;;;;;;45.20;13.20;;;;;;;1.90;nan;99572.50;5016383;28;20100;-71
2021/12/11 03:56:37;;;;;;;32.15;12.07;;;;;;;1.91;nan;99579.28;5031429;28;20495;-71
2021/12/11 03:59:24;;;;;;;37.05;13.07;;;;;;;1.93;nan;99566.91;5021430;28;20041;-71
2021/12/11 04:02:12;;;;;;;39.70;12.73;;;;;;;1.87;nan;99565.91;5025757;28;20129;-70
2021/12/11 04:05:00;;;;;;;40.40;12.93;;;;;;;1.92;nan;99566.13;5030209;28;20431;-71
2021/12/11 04:07:48;;;;;;;67.07;12.57;;;;;;;1.88;nan;99557.09;5031484;28;20037;-71
2021/12/11 04:10:34;;;;;;;56.65;13.38;;;;;;;1.79;nan;99536.66;5022347;28;20029;-70
2021/12/11 04:13:20;;;;;;;47.70;13.23;;;;;;;1.81;nan;99547.66;5031487;28;20492;-71
2021/12/11 04:16:07;;;;;;;54.95;14.30;;;;;;;1.79;nan;99534.88;5012585;28;20492;-71
2021/12/11 04:18:53;;;;;;;65.82;12.50;;;;;;;1.75;nan;99533.66;5023173;28;20066;-71
2021/12/11 04:21:40;;;;;;;38.45;11.98;;;;;;;1.76;nan;99550.03;5031468;28;20065;-71
2021/12/11 04:24:29;;;;;;;39.22;11.43;;;;;;;1.69;nan;99539.59;5028457;28;20087;-71
2021/12/11 04:27:18;;;;;;;42.75;11.40;;;;;;;1.68;nan;99546.56;5023932;28;20049;-71
2021/12/11 04:30:10;;;;;;;34.95;11.60;;;;;;;1.66;nan;99558.94;5027208;28;20044;-70
2021/12/11 04:32:58;;;;;;;40.67;11.90;;;;;;;1.58;nan;99555.66;5012363;28;20104;-72
2021/12/11 04:35:44;;;;;;;49.28;11.65;;;;;;;1.54;nan;99564.81;5031811;28;20144;-71
2021/12/11 04:38:31;;;;;;;69.90;12.27;;;;;;;1.39;nan;99550.13;5014749;28;20046;-72
2021/12/11 04:41:24;;;;;;;81.25;13.45;;;;;;;1.46;nan;99574.34;5032440;28;20038;-71
2021/12/11 04:44:15;;;;;;;62.40;12.95;;;;;;;1.41;nan;99575.88;5024452;28;20034;-70
2021/12/11 04:47:05;;;;;;;91.10;13.65;;;;;;;1.35;nan;99569.63;5032434;28;20037;-71
2021/12/11 04:49:57;;;;;;;93.75;14.60;;;;;;;1.27;nan;99567.19;5030356;28;20069;-72
2021/12/11 04:52:55;;;;;;;80.35;12.85;;;;;;;1.25;nan;99564.75;5029884;28;20037;-72
2021/12/11 04:58:49;;;;;;;86.85;15.15;;;;;;;1.17;nan;99561.47;5011598;28;20045;-72
2021/12/11 05:05:03;;;;;;;62.70;14.68;;;;;;;1.20;nan;99576.69;5032863;28;20120;-72
2021/12/11 05:13:38;;;;;;;117.00;17.40;;;;;;;1.14;nan;99583.38;5027746;28;20396;-72
2021/12/11 05:16:24;;;;;;;62.25;16.25;;;;;;;1.06;nan;99576.53;5011650;28;20088;-71
2021/12/11 05:19:10;;;;;;;68.65;16.67;;;;;;;1.12;nan;99584.56;5019780;28;20064;-72
2021/12/11 05:21:56;;;;;;;73.90;16.63;;;;;;;1.13;nan;99596.56;5028683;28;20045;-72
2021/12/11 05:24:45;;;;;;;62.20;15.68;;;;;;;1.15;nan;99600.56;5019540;28;20041;-72
2021/12/11 05:27:31;;;;;;;;;;;;;;;1.14;nan;99604.13;5027707;28;20116;-72
2021/12/11 05:30:22;;;;;;;67.30;14.82;;;;;;;0.90;nan;99576.75;5027798;28;19958;-72
2021/12/11 05:33:08;;;;;;;62.08;16.95;;;;;;;0.96;nan;99590.75;5015632;28;20044;-74
2021/12/11 05:35:54;;;;;;;85.00;16.27;;;;;;;1.13;nan;99630.25;5029807;28;20044;-74
2021/12/11 05:38:41;;;;;;;55.05;14.02;;;;;;;1.09;nan;99632.41;5045520;28;20029;-74
2021/12/11 05:41:27;;;;;;;57.25;14.80;;;;;;;1.00;nan;99630.88;5016763;28;20045;-74
2021/12/11 05:44:16;;;;;;;56.28;14.75;;;;;;;1.03;nan;99646.06;5028831;28;20046;-74
2021/12/11 05:47:04;;;;;;;44.10;14.57;;;;;;;0.92;nan;99631.81;5029635;28;20393;-74
2021/12/11 05:49:50;;;;;;;40.55;13.77;;;;;;;1.00;nan;99644.66;5024337;28;20470;-73
2021/12/11 05:52:36;;;;;;;35.85;13.45;;;;;;;1.06;nan;99659.50;5028251;28;20152;-73
2021/12/11 05:55:24;;;;;;;42.28;14.40;;;;;;;1.07;nan;99655.09;5034081;28;20038;-74
2021/12/11 05:58:12;;;;;;;35.00;14.35;;;;;;;1.06;nan;99661.28;5030339;28;20037;-74
2021/12/11 06:00:58;;;;;;;50.92;14.95;;;;;;;0.97;nan;99647.63;5031097;28;20057;-74
2021/12/11 06:03:44;;;;;;;53.20;15.30;;;;;;;0.96;nan;99655.56;5030353;28;20041;-73
2021/12/11 06:06:30;;;;;;;42.38;14.68;;;;;;;0.97;nan;99654.59;5028369;28;20065;-73
2021/12/11 06:09:18;;;;;;;51.38;15.18;;;;;;;1.02;nan;99667.81;5030209;28;20049;-74
2021/12/11 06:12:08;;;;;;;42.97;14.02;;;;;;;1.03;nan;99680.59;5049277;28;20048;-73
2021/12/11 06:14:54;;;;;;;42.22;16.17;;;;;;;1.04;nan;99681.41;5025473;28;20025;-74
2021/12/11 06:17:45;;;;;;;39.67;15.73;;;;;;;1.01;nan;99682.56;5024740;28;20041;-74
2021/12/11 06:20:32;;;;;;;50.72;16.35;;;;;;;1.03;nan;99685.78;5029979;28;20033;-73
2021/12/11 06:23:19;;;;;;;38.33;16.05;;;;;;;0.96;nan;99674.53;5022922;28;20041;-73
2021/12/11 06:26:05;;;;;;;41.00;15.88;;;;;;;0.97;nan;99678.72;5034631;28;20507;-73
2021/12/11 06:28:51;;;;;;;41.13;16.95;;;;;;;0.96;nan;99689.25;5029030;28;20046;-73
2021/12/11 06:31:37;;;;;;;43.30;16.65;;;;;;;0.99;nan;99702.69;5046350;28;20036;-73
2021/12/11 06:34:27;;;;;;;44.72;16.65;;;;;;;0.99;nan;99710.47;5043028;28;20038;-74
2021/12/11 06:37:15;;;;;;;47.22;16.55;;;;;;;0.99;nan;99709.66;5032104;28;20068;-74
2021/12/11 06:40:03;;;;;;;43.53;18.25;;;;;;;0.92;nan;99693.22;5035952;28;20419;-72
2021/12/11 06:42:51;;;;;;;50.17;18.42;;;;;;;0.89;nan;99699.56;5031124;28;20079;-72
2021/12/11 06:45:37;;;;;;;48.55;18.95;;;;;;;0.93;nan;99705.19;5030913;28;20029;-72
2021/12/11 06:48:23;;;;;;;51.20;19.27;;;;;;;0.91;nan;99710.56;5033219;28;20102;-73
2021/12/11 06:51:10;;;;;;;44.20;19.00;;;;;;;0.90;nan;99703.75;5026698;28;20519;-74
2021/12/11 06:53:59;;;;;;;50.03;18.73;;;;;;;0.87;nan;99696.34;5027193;28;20045;-72
2021/12/11 06:56:45;;;;;;;;;;;;;;;0.99;nan;99718.22;5040892;28;20038;-74
2021/12/11 06:59:32;;;;;;;51.13;16.92;;;;;;;0.90;nan;99708.94;5041201;28;19966;-73
2021/12/11 07:02:20;;;;;;;50.72;17.55;;;;;;;0.99;nan;99720.81;5031478;28;20534;-72
2021/12/11 07:05:06;;;;;;;46.58;15.55;;;;;;;0.99;nan;99720.03;5032902;28;20034;-73
2021/12/11 07:07:52;;;;;;;35.80;14.98;;;;;;;0.94;nan;99705.00;5032975;28;20076;-73
2021/12/11 07:10:39;;;;;;;53.22;16.65;;;;;;;0.96;nan;99710.81;5032421;28;20025;-74
2021/12/11 07:13:25;;;;;;;41.22;16.33;;;;;;;0.98;nan;99716.63;5023407;28;20491;-75
2021/12/11 07:16:12;;;;;;;46.13;17.63;;;;;;;0.93;nan;99724.13;5036285;28;20526;-74
2021/12/11 07:18:58;;;;;;;50.70;16.27;;;;;;;0.98;nan;99729.59;5042544;28;20690;-75
2021/12/11 07:21:50;;;;;;;41.50;15.27;;;;;;;0.90;nan;99716.72;5039355;28;20029;-75
2021/12/11 07:24:42;;;;;;;51.97;17.75;;;;;;;1.04;nan;99741.03;5014541;28;20519;-75
2021/12/11 07:27:29;;;;;;;49.47;18.13;;;;;;;0.96;nan;99728.13;5027517;28;20072;-73
2021/12/11 07:30:15;;;;;;;52.38;18.50;;;;;;;1.06;nan;99757.22;5031190;28;20116;-72
2021/12/11 07:33:04;;;;;;;51.38;19.17;;;;;;;1.13;nan;99765.09;5032810;28;20065;-73
2021/12/11 07:35:51;;;;;;;62.65;21.67;;;;;;;1.20;nan;99778.94;5032712;28;20410;-72
2021/12/11 07:38:37;;;;;;;72.40;23.23;;;;;;;0.99;nan;99726.00;5025814;28;20473;-72
2021/12/11 07:41:23;;;;;;;60.28;21.63;;;;;;;1.12;nan;99745.31;5032051;28;20025;-73
2021/12/11 07:44:09;;;;;;;61.22;22.42;;;;;;;1.21;nan;99759.81;5030930;28;20029;-74
2021/12/11 07:46:58;;;;;;;64.25;21.75;;;;;;;1.29;nan;99762.28;5032225;28;20103;-73
2021/12/11 07:49:44;;;;;;;64.32;22.40;;;;;;;1.33;nan;99770.53;5048058;28;20456;-72
2021/12/11 07:52:30;;;;;;;76.53;23.48;;;;;;;1.27;nan;99754.72;5036616;28;20044;-72
2021/12/11 07:55:15;;;;;;;77.07;24.55;;;;;;;1.39;nan;99772.38;5030080;28;20049;-72
2021/12/11 07:58:04;;;;;;;76.78;24.08;;;;;;;1.35;nan;99764.19;5031128;28;20414;-72
2021/12/11 08:00:50;;;;;;;73.20;22.10;;;;;;;1.37;nan;99777.78;5029477;28;20064;-73
2021/12/11 08:03:37;;;;;;;76.10;22.70;;;;;;;1.43;nan;99778.84;5031430;28;20033;-73
2021/12/11 08:06:23;;;;;;;75.88;23.85;;;;;;;1.42;nan;99785.81;5032267;28;20514;-72
2021/12/11 08:09:14;;;;;;;82.65;24.48;;;;;;;1.41;nan;99776.44;5027739;28;20099;-73
2021/12/11 08:12:01;;;;;;;90.80;27.20;;;;;;;1.52;nan;99782.94;5030695;28;20586;-72
2021/12/11 08:14:47;;;;;;;89.07;24.85;;;;;;;1.56;nan;99801.56;5032534;28;20052;-72
2021/12/11 08:17:32;;;;;;;82.50;23.90;;;;;;;1.38;nan;99774.19;5031721;28;20026;-73
2021/12/11 08:20:19;;;;;;;80.82;23.80;;;;;;;1.66;nan;99804.69;5029808;28;20402;-72
2021/12/11 08:23:05;;;;;;;85.20;26.50;;;;;;;1.60;nan;99801.00;5026749;28;20045;-72
2021/12/11 08:25:53;;;;;;;96.45;26.27;;;;;;;1.71;nan;99817.91;5030950;28;20045;-72
2021/12/11 08:28:39;;;;;;;88.93;27.27;;;;;;;1.70;nan;99808.53;5029546;28;20029;-71
2021/12/11 08:31:25;;;;;;;83.95;25.40;;;;;;;1.80;nan;99816.81;5031308;28;20475;-71
2021/12/11 08:34:11;;;;;;;100.43;26.45;;;;;;;1.83;nan;99805.28;5029879;28;20036;-72
2021/12/11 08:36:58;;;;;;;72.63;22.52;;;;;;;1.82;nan;99794.09;5029821;28;20041;-74
2021/12/11 08:39:45;;;;;;;88.60;26.25;;;;;;;1.76;nan;99783.63;5031896;28;20030;-74
2021/12/11 08:42:31;;;;;;;90.03;23.20;;;;;;;1.91;nan;99798.16;5028713;28;20037;-74
2021/12/11 08:45:24;;;;;;;93.47;25.33;;;;;;;1.91;nan;99789.56;5022190;28;20061;-75
2021/12/11 08:48:14;;;;;;;93.35;25.17;;;;;;;1.98;nan;99789.66;5031827;28;20099;-74
2021/12/11 08:51:07;;;;;;;82.35;23.50;;;;;;;1.94;nan;99781.44;5030218;28;20041;-73
2021/12/11 08:53:53;;;;;;;76.82;23.48;;;;;;;1.99;nan;99788.66;5027871;28;20044;-75
2021/12/11 08:56:40;;;;;;;84.57;26.90;;;;;;;2.07;nan;99791.94;5035040;28;20494;-74
2021/12/11 08:59:28;;;;;;;83.07;25.58;;;;;;;2.18;nan;99795.88;5050543;28;20037;-75
2021/12/11 09:02:26;;;;;;;87.22;25.90;;;;;;;1.95;nan;99757.06;5033569;28;20053;-74
2021/12/11 09:05:26;;;;;;;77.88;23.77;;;;;;;2.13;nan;99783.44;5031479;28;20052;-74
2021/12/11 09:08:29;;;;;;;78.03;24.38;;;;;;;2.28;nan;99800.75;5048568;28;20041;-75
2021/12/11 09:11:20;;;;;;;80.65;23.80;;;;;;;2.23;nan;99783.13;5015212;28;20049;-74
2021/12/11 09:14:06;;;;;;;79.65;24.70;;;;;;;2.35;nan;99786.03;5021431;28;20116;-74
2021/12/11 09:17:09;;;;;;;87.55;26.15;;;;;;;2.38;nan;99784.84;5037013;28;20052;-74
2021/12/11 09:20:14;;;;;;;74.28;25.88;;;;;;;2.43;nan;99780.69;5050801;28;20037;-74
2021/12/11 09:23:13;;;;;;;78.55;26.17;;;;;;;2.48;nan;99780.13;5034699;28;20045;-73
2021/12/11 09:26:08;;;;;;;66.47;22.33;;;;;;;2.42;nan;99773.91;5029101;28;20466;-73
2021/12/11 09:29:04;;;;;;;66.63;22.85;;;;;;;2.58;nan;99806.59;5027942;28;20061;-73
2021/12/11 09:31:57;;;;;;;60.78;23.20;;;;;;;2.65;nan;99824.88;5030624;28;20423;-74
2021/12/11 09:34:52;;;;;;;63.83;23.23;;;;;;;2.68;nan;99812.31;5030753;28;20100;-74
2021/12/11 09:37:40;;;;;;;65.47;23.52;;;;;;;2.64;nan;99774.69;5036072;28;20037;-74
2021/12/11 09:40:34;;;;;;;73.97;23.83;;;;;;;2.81;nan;99800.41;5023812;28;20124;-73
2021/12/11 09:43:51;;;;;;;61.03;23.63;;;;;;;2.79;nan;99792.00;5025989;28;20045;-74
2021/12/11 09:46:50;;;;;;;60.17;23.48;;;;;;;2.83;nan;99783.63;5022577;28;20033;-73
2021/12/11 09:49:42;;;;;;;56.72;23.73;;;;;;;2.95;nan;99783.91;5026559;28;20115;-73
2021/12/11 09:52:30;;;;;;;66.50;27.30;;;;;;;2.92;nan;99773.88;5041612;28;20033;-73
2021/12/11 09:55:21;;;;;;;61.03;26.38;;;;;;;2.91;nan;99759.25;5024061;28;20530;-72
2021/12/11 09:58:12;;;;;;;67.15;30.02;;;;;;;3.04;nan;99763.72;5029116;28;20079;-73
2021/12/11 10:01:05;;;;;;;58.13;26.27;;;;;;;2.98;nan;99736.69;5030221;28;20131;-72
2021/12/11 10:04:01;;;;;;;57.20;27.77;;;;;;;3.14;nan;99752.00;5031669;28;20041;-73
2021/12/11 10:09:50;;;;;;;52.22;24.30;;;;;;;3.23;nan;99770.84;5038091;28;20041;-72
2021/12/11 10:12:40;;;;;;;51.35;23.88;;;;;;;3.31;nan;99754.28;5035340;28;20446;-72
2021/12/11 10:15:34;;;;;;;55.72;25.13;;;;;;;3.33;nan;99744.50;5044720;28;20025;-72
2021/12/11 10:18:24;;;;;;;46.22;23.88;;;;;;;3.49;nan;99764.16;5035910;28;20030;-73
2021/12/11 10:21:21;;;;;;;50.63;25.17;;;;;;;3.59;nan;99760.22;5035770;28;20037;-72
2021/12/11 10:24:11;;;;;;;48.70;23.92;;;;;;;3.52;nan;99741.16;5034845;28;20477;-72
2021/12/11 10:27:00;;;;;;;42.03;22.92;;;;;;;3.65;nan;99748.22;5038049;28;20127;-73
2021/12/11 10:29:46;;;;;;;40.60;20.90;;;;;;;3.60;nan;99740.19;5022266;28;20392;-72
2021/12/11 10:32:33;;;;;;;37.00;19.27;;;;;;;3.79;nan;99788.91;5016980;28;20045;-72
2021/12/11 10:35:24;;;;;;;37.55;19.08;;;;;;;3.70;nan;99771.06;5031675;28;20188;-72
2021/12/11 10:38:10;;;;;;;41.03;19.77;;;;;;;3.90;nan;99797.16;5037877;28;20557;-73
2021/12/11 10:40:59;;;;;;;36.88;19.00;;;;;;;3.95;nan;99798.19;5045616;28;20040;-72
2021/12/11 10:43:54;;;;;;;27.88;14.93;;;;;;;3.96;nan;99794.56;5036695;28;20033;-72
2021/12/11 10:46:45;;;;;;;29.85;15.95;;;;;;;4.08;nan;99807.84;5038562;28;20029;-72
2021/12/11 10:49:32;;;;;;;26.33;13.35;;;;;;;3.99;nan;99796.78;5017232;28;20411;-72
2021/12/11 10:52:26;;;;;;;33.50;16.50;;;;;;;4.12;nan;99810.84;5030579;28;20462;-71
2021/12/11 10:55:14;;;;;;;29.95;15.10;;;;;;;4.17;nan;99814.47;5035949;28;20033;-72
2021/12/11 10:58:06;;;;;;;30.83;14.80;;;;;;;4.21;nan;99815.69;5021499;28;20068;-73
2021/12/11 11:00:54;;;;;;;25.08;14.32;;;;;;;4.23;nan;99805.06;5033927;28;20419;-72
2021/12/11 11:03:45;;;;;;;28.23;14.43;;;;;;;4.22;nan;99795.66;5036265;28;20034;-72
2021/12/11 11:06:31;;;;;;;27.70;13.52;;;;;;;4.09;nan;99765.13;5033740;28;20044;-73
2021/12/11 11:09:20;;;;;;;22.35;12.38;;;;;;;4.07;nan;99754.13;5039889;28;20052;-73
2021/12/11 11:12:10;;;;;;;25.92;14.35;;;;;;;4.26;nan;99787.25;5034895;28;20045;-72
2021/12/11 11:14:57;;;;;;;23.35;13.68;;;;;;;4.40;nan;99803.66;5050588;28;20032;-72
2021/12/11 11:17:43;;;;;;;28.00;15.02;;;;;;;4.43;nan;99807.69;5047872;28;20383;-73
2021/12/11 11:20:38;;;;;;;27.27;15.50;;;;;;;4.42;nan;99791.25;5033122;28;20033;-72
2021/12/11 11:23:24;;;;;;;31.70;16.30;;;;;;;4.41;nan;99792.25;5029798;28;20047;-72
2021/12/11 11:26:15;;;;;;;28.98;15.30;;;;;;;4.51;nan;99804.91;5030987;28;20108;-72
2021/12/11 11:29:04;;;;;;;42.72;22.80;;;;;;;4.57;nan;99816.31;5032671;28;20049;-72
2021/12/11 11:31:54;;;;;;;48.15;25.75;;;;;;;4.41;nan;99794.88;5032103;28;20124;-72
2021/12/11 11:34:42;;;;;;;40.40;23.15;;;;;;;4.61;nan;99828.75;5030596;28;20037;-72
2021/12/11 11:37:29;;;;;;;33.03;20.20;;;;;;;4.60;nan;99826.38;5033407;28;20041;-72
2021/12/11 11:40:21;;;;;;;32.63;19.20;;;;;;;4.63;nan;99818.94;5024542;28;20041;-72
2021/12/11 11:43:07;;;;;;;36.05;20.77;;;;;;;4.69;nan;99831.19;5027844;28;20033;-72
2021/12/11 11:45:54;;;;;;;50.33;24.38;;;;;;;4.71;nan;99825.75;5025849;28;20069;-72
2021/12/11 11:48:42;;;;;;;31.90;17.15;;;;;;;4.83;nan;99831.19;5032749;28;20041;-72
2021/12/11 11:51:35;;;;;;;29.30;15.00;;;;;;;4.88;nan;99829.59;5032267;28;20515;-72
2021/12/11 11:54:24;;;;;;;31.55;17.33;;;;;;;4.93;nan;99817.72;5026176;28;20700;-72
2021/12/11 11:57:14;;;;;;;24.13;13.50;;;;;;;4.96;nan;99815.53;5029120;28;20577;-72
2021/12/11 12:00:06;;;;;;;21.35;11.32;;;;;;;4.89;nan;99805.09;5038708;28;20565;-72
2021/12/11 12:02:52;;;;;;;27.50;14.88;;;;;;;4.92;nan;99809.09;5031843;28;20057;-71
2021/12/11 12:05:42;;;;;;;27.40;14.80;;;;;;;4.90;nan;99806.69;5032802;28;20056;-73
2021/12/11 12:08:27;;;;;;;;;;;;;;;5.00;nan;99808.09;5030773;28;20072;-72
2021/12/11 12:11:14;;;;;;;19.52;10.65;;;;;;;4.97;nan;99800.69;5033326;28;19916;-72
2021/12/11 12:14:04;;;;;;;18.67;10.82;;;;;;;5.01;nan;99807.09;5040906;28;20033;-73
2021/12/11 12:16:51;;;;;;;17.35;9.98;;;;;;;5.07;nan;99806.28;5022345;28;20045;-73
2021/12/11 12:19:37;;;;;;;19.80;11.90;;;;;;;5.02;nan;99803.47;5028356;28;20064;-72
2021/12/11 12:22:26;;;;;;;24.30;13.65;;;;;;;4.94;nan;99798.47;5020778;28;20076;-73
2021/12/11 12:25:12;;;;;;;29.15;14.93;;;;;;;5.01;nan;99810.50;5031708;28;20415;-73
2021/12/11 12:27:57;;;;;;;30.02;17.17;;;;;;;5.00;nan;99814.09;5032454;28;20443;-73
2021/12/11 12:30:52;;;;;;;33.65;18.48;;;;;;;5.05;nan;99805.66;5030475;28;20033;-73
2021/12/11 12:33:37;;;;;;;35.22;19.40;;;;;;;5.01;nan;99807.09;5028941;28;20033;-73
2021/12/11 12:36:25;;;;;;;38.55;20.95;;;;;;;4.95;nan;99807.91;5030620;28;20079;-73
2021/12/11 12:39:13;;;;;;;37.60;21.02;;;;;;;4.86;nan;99808.13;5031182;28;20026;-72
2021/12/11 12:42:15;;;;;;;46.55;24.98;;;;;;;4.86;nan;99817.72;5032232;28;20040;-74
2021/12/11 12:45:14;;;;;;;53.40;27.13;;;;;;;4.87;nan;99830.59;5029759;28;20045;-73
2021/12/11 12:48:06;;;;;;;39.70;21.67;;;;;;;4.86;nan;99826.38;5029303;28;20041;-73
2021/12/11 12:51:00;;;;;;;48.47;26.70;;;;;;;4.83;nan;99816.31;5029619;28;20053;-73
2021/12/11 12:53:47;;;;;;;47.95;26.90;;;;;;;4.85;nan;99822.16;5030055;28;20033;-73
2021/12/11 12:56:38;;;;;;;38.40;22.02;;;;;;;4.87;nan;99821.97;5014571;28;20034;-75
2021/12/11 12:59:30;;;;;;;36.75;21.08;;;;;;;4.86;nan;99823.78;5023599;28;20487;-76
2021/12/11 13:02:19;;;;;;;47.58;24.25;;;;;;;4.81;nan;99820.13;5030130;28;20103;-77
2021/12/11 13:05:38;;;;;;;46.97;26.48;;;;;;;4.83;nan;99826.75;5025115;28;20127;-77
2021/12/11 13:08:28;;;;;;;62.65;34.58;;;;;;;4.83;nan;99826.75;5017334;28;20033;-77
2021/12/11 13:11:21;;;;;;;79.40;42.42;;;;;;;4.76;nan;99818.13;5029659;28;20044;-76
2021/12/11 13:14:07;;;;;;;45.53;25.52;;;;;;;4.84;nan;99836.22;5025469;28;20030;-76
2021/12/11 13:16:58;;;;;;;41.97;22.30;;;;;;;4.82;nan;99843.44;5025389;28;20510;-77
2021/12/11 13:19:48;;;;;;;46.65;25.65;;;;;;;4.76;nan;99838.19;5031465;28;20388;-77
2021/12/11 13:22:38;;;;;;;56.35;29.63;;;;;;;4.76;nan;99833.00;5030053;28;20091;-76
2021/12/11 13:25:33;;;;;;;85.75;41.67;;;;;;;4.66;nan;99833.38;5030232;28;20033;-76
2021/12/11 13:28:22;;;;;;;124.38;53.85;;;;;;;4.68;nan;99826.16;5023973;28;20676;-76
2021/12/11 13:31:15;;;;;;;71.63;34.35;;;;;;;4.75;nan;99832.19;5030550;28;20045;-76
2021/12/11 13:34:02;;;;;;;47.40;24.60;;;;;;;4.68;nan;99826.97;5029062;28;20087;-75
2021/12/11 13:36:48;;;;;;;67.57;32.88;;;;;;;4.60;nan;99818.56;5023216;28;20030;-75
2021/12/11 13:39:34;;;;;;;55.70;26.75;;;;;;;4.68;nan;99831.38;5023421;28;20030;-76
2021/12/11 13:42:24;;;;;;;52.67;27.02;;;;;;;4.67;nan;99837.63;5025231;28;20037;-75
2021/12/11 13:45:26;;;;;;;43.10;21.73;;;;;;;4.61;nan;99836.59;5017110;28;20037;-76
2021/12/11 13:48:13;;;;;;;47.30;23.05;;;;;;;4.51;nan;99830.19;5022455;28;20396;-76